Time;durP1;ratioP1;P1;durP2;ratioP2;P2;SDS_P1;SDS_P2;PMS_P1;PMS_P2;Temp;Humidity;BMP_temperature;BMP_pressure;BME280_temperature;BME280_humidity;BME280_pressure;Samples;Min_cycle;Max_cycle;Signal;HPM_P1;HPM_P2
2023/09/16 00:00:46;;;;;;;;;;;;;;;17.05;60.97;97988.06;5027912;28;19986;-60
2023/09/16 00:03:14;;;;;;;;;;;;;;;17.03;60.75;97980.97;5026640;28;20355;-61
2023/09/16 00:05:44;;;;;;;;;;;;;;;16.99;61.03;97979.28;5025706;28;19925;-60
2023/09/16 00:08:13;;;;;;;;;;;;;;;16.95;60.72;97981.94;5027923;28;19925;-60
2023/09/16 00:10:40;;;;;;;;;;;;;;;16.95;60.97;97978.41;5020154;28;20390;-61
2023/09/16 00:13:08;;;;;;;;;;;;;;;16.94;60.94;97976.81;5024059;28;19974;-60
2023/09/16 00:15:36;;;;;;;;;;;;;;;16.87;61.07;97982.09;5021687;28;20297;-60
2023/09/16 00:18:04;;;;;;;;;;;;;;;16.84;61.34;97980.06;5024494;28;19929;-61
2023/09/16 00:20:33;;;;;;;;;;;;;;;16.78;61.62;97974.03;5026858;28;19932;-60
2023/09/16 00:23:04;;;;;;;;;;;;;;;16.75;61.54;97975.50;5027158;28;19929;-60
2023/09/16 00:25:33;;;;;;;;;;;;;;;16.77;61.47;97973.19;5026791;28;19929;-60
2023/09/16 00:28:01;;;;;;;;;;;;;;;16.79;61.74;97981.09;5024422;28;19929;-61
2023/09/16 00:30:28;;;;;;;;;;;;;;;16.76;61.33;97977.09;5002790;28;20272;-61
2023/09/16 00:32:56;;;;;;;;;;;;;;;16.78;61.55;97982.25;5028754;28;19978;-61
2023/09/16 00:35:24;;;;;;;;;;;;;;;16.76;61.54;97979.84;5028981;28;20286;-60
2023/09/16 00:37:52;;;;;;;;;;;;;;;16.73;61.77;97983.31;5027815;28;19925;-60
2023/09/16 00:40:19;;;;;;;;;;;;;;;16.69;61.79;97976.88;5006697;28;20439;-60
2023/09/16 00:42:48;;;;;;;;;;;;;;;16.67;61.84;97981.09;5029546;28;19931;-60
2023/09/16 00:45:16;;;;;;;;;;;;;;;16.66;62.14;97966.59;5021380;28;19929;-62
2023/09/16 00:47:44;;;;;;;;;;;;;;;16.65;61.85;97969.69;5028774;28;20290;-60
2023/09/16 00:50:12;;;;;;;;;;;;;;;16.65;61.87;97965.00;5009082;28;19925;-61
2023/09/16 00:52:45;;;;;;;;;;;;;;;16.66;61.81;97957.56;5028221;28;19929;-63
2023/09/16 00:55:12;;;;;;;;;;;;;;;16.63;62.08;97958.28;5009903;28;19926;-61
2023/09/16 00:57:41;;;;;;;;;;;;;;;16.61;61.84;97947.66;5026411;28;19929;-60
2023/09/16 01:00:12;;;;;;;;;;;;;;;16.56;62.13;97953.38;5023759;28;19983;-60
2023/09/16 01:02:40;;;;;;;;;;;;;;;16.56;62.04;97950.66;5028002;28;19929;-60
2023/09/16 01:05:14;;;;;;;;;;;;;;;16.54;62.22;97952.94;5028961;28;19929;-60
2023/09/16 01:07:45;;;;;;;;;;;;;;;16.52;62.32;97955.25;5009834;28;19933;-60
2023/09/16 01:10:14;;;;;;;;;;;;;;;16.49;62.27;97953.19;5003792;28;19925;-60
2023/09/16 01:12:42;;;;;;;;;;;;;;;16.44;62.54;97953.44;5007046;28;22105;-61
2023/09/16 01:15:13;;;;;;;;;;;;;;;16.37;62.67;97962.28;5000682;28;19929;-60
2023/09/16 01:17:41;;;;;;;;;;;;;;;16.37;62.69;97954.03;5005660;28;19933;-60
2023/09/16 01:20:11;;;;;;;;;;;;;;;16.38;62.90;97954.84;5015387;28;19925;-60
2023/09/16 01:22:44;;;;;;;;;;;;;;;16.35;62.66;97955.53;5001185;28;20384;-60
2023/09/16 01:25:14;;;;;;;;;;;;;;;16.34;62.87;97962.16;5009708;28;19925;-60
2023/09/16 01:27:42;;;;;;;;;;;;;;;16.30;62.96;97964.81;5007952;28;19979;-60
2023/09/16 01:30:10;;;;;;;;;;;;;;;16.33;62.92;97974.28;5003327;28;19930;-60
2023/09/16 01:32:42;;;;;;;;;;;;;;;16.34;63.02;97973.91;4987809;28;19937;-60
2023/09/16 01:35:11;;;;;;;;;;;;;;;16.33;62.86;97971.53;4988301;28;19930;-60
2023/09/16 01:37:39;;;;;;;;;;;;;;;16.33;62.79;97971.53;4969296;28;19926;-61
2023/09/16 01:40:10;;;;;;;;;;;;;;;16.32;62.94;97973.47;4983002;28;19980;-60
2023/09/16 01:42:41;;;;;;;;;;;;;;;16.30;62.94;97974.97;4990556;28;20440;-60
2023/09/16 01:45:10;;;;;;;;;;;;;;;16.30;62.88;97970.31;4960441;28;20008;-60
2023/09/16 01:47:38;;;;;;;;;;;;;;;16.31;62.66;97976.56;4990576;28;19956;-60
2023/09/16 01:50:06;;;;;;;;;;;;;;;16.28;62.90;97972.56;5008889;28;19926;-60
2023/09/16 01:52:37;;;;;;;;;;;;;;;16.25;62.91;97978.75;5005770;28;20443;-60
2023/09/16 01:55:06;;;;;;;;;;;;;;;16.24;63.07;97977.97;4989958;28;19925;-60
2023/09/16 01:57:34;;;;;;;;;;;;;;;16.23;62.99;97976.34;5006124;28;20064;-60
2023/09/16 02:00:05;;;;;;;;;;;;;;;16.20;63.01;97987.22;4992487;28;19964;-61
2023/09/16 02:02:39;;;;;;;;;;;;;;;16.19;63.28;97974.66;5007056;28;19929;-60
2023/09/16 02:05:07;;;;;;;;;;;;;;;16.19;62.92;97977.38;5009152;28;19930;-60
2023/09/16 02:07:35;;;;;;;;;;;;;;;16.19;63.14;97971.91;4991179;28;19933;-60
2023/09/16 02:10:03;;;;;;;;;;;;;;;16.18;62.97;97973.84;4996356;28;19979;-60
2023/09/16 02:12:59;;;;;;;;;;;;;;;16.24;62.90;97977.16;5024593;28;20290;-60
2023/09/16 02:15:29;;;;;;;;;;;;;;;16.20;62.89;97977.06;4994735;28;20381;-61
2023/09/16 02:17:57;;;;;;;;;;;;;;;16.19;62.84;97977.38;5008400;28;19931;-61
2023/09/16 02:20:25;;;;;;;;;;;;;;;16.20;63.08;97977.06;5014232;28;19975;-60
2023/09/16 02:22:52;;;;;;;;;;;;;;;16.16;63.08;97987.13;5024872;28;19937;-60
2023/09/16 02:25:21;;;;;;;;;;;;;;;16.12;63.33;97980.72;5010419;28;19934;-61
2023/09/16 02:27:49;;;;;;;;;;;;;;;16.07;63.19;97983.69;5010416;28;20298;-60
2023/09/16 02:30:19;;;;;;;;;;;;;;;16.02;63.38;97981.19;5025013;28;19925;-61
2023/09/16 02:32:47;;;;;;;;;;;;;;;16.01;63.56;97974.13;5030095;28;19931;-60
2023/09/16 02:35:16;;;;;;;;;;;;;;;16.02;63.52;97983.94;5011665;28;20406;-60
2023/09/16 02:37:45;;;;;;;;;;;;;;;16.01;63.46;97976.84;5012951;28;19924;-60
2023/09/16 02:40:12;;;;;;;;;;;;;;;16.01;63.37;97979.59;5031772;28;20283;-60
2023/09/16 02:42:40;;;;;;;;;;;;;;;16.03;63.36;97981.97;5008875;28;19926;-60
2023/09/16 02:45:08;;;;;;;;;;;;;;;16.01;63.39;97985.09;5025886;28;21789;-61
2023/09/16 02:47:36;;;;;;;;;;;;;;;16.01;63.34;97984.28;5007438;28;20715;-60
2023/09/16 02:50:07;;;;;;;;;;;;;;;15.99;63.20;97979.16;5028724;28;19932;-61
2023/09/16 02:52:35;;;;;;;;;;;;;;;15.96;63.27;97983.38;5027672;28;19925;-60
2023/09/16 02:55:02;;;;;;;;;;;;;;;15.98;63.33;97980.31;5013054;28;19943;-60
2023/09/16 02:57:30;;;;;;;;;;;;;;;15.97;63.34;97990.44;5008690;28;19951;-60
2023/09/16 02:59:59;;;;;;;;;;;;;;;15.98;63.67;97991.25;5026890;28;19925;-60
2023/09/16 03:02:30;;;;;;;;;;;;;;;15.94;63.63;98002.09;5002402;28;20074;-60
2023/09/16 03:05:01;;;;;;;;;;;;;;;15.93;63.70;97999.72;5012769;28;20007;-60
2023/09/16 03:07:31;;;;;;;;;;;;;;;15.91;63.69;97996.50;5016149;28;19932;-61
2023/09/16 03:10:00;;;;;;;;;;;;;;;15.89;63.69;97993.31;5011105;28;20395;-61
2023/09/16 03:12:29;;;;;;;;;;;;;;;15.90;63.78;97992.19;5015654;28;19925;-60
2023/09/16 03:14:57;;;;;;;;;;;;;;;15.84;63.88;97991.63;5012167;28;20318;-60
2023/09/16 03:17:26;;;;;;;;;;;;;;;15.85;63.83;97989.66;5001750;28;19932;-60
2023/09/16 03:19:54;;;;;;;;;;;;;;;15.84;63.90;97977.91;5029607;28;19929;-60
2023/09/16 03:22:22;;;;;;;;;;;;;;;15.73;63.89;97986.94;5007955;28;20026;-60
2023/09/16 03:24:51;;;;;;;;;;;;;;;15.75;64.01;97988.19;5011065;28;19939;-60
2023/09/16 03:27:19;;;;;;;;;;;;;;;15.74;63.82;97981.13;5031302;28;19925;-60
2023/09/16 03:29:47;;;;;;;;;;;;;;;15.74;64.08;97988.53;5011995;28;19956;-60
2023/09/16 03:32:15;;;;;;;;;;;;;;;15.73;64.08;97981.47;5006898;28;19925;-60
2023/09/16 03:34:44;;;;;;;;;;;;;;;15.71;64.00;97979.06;5029943;28;20367;-60
2023/09/16 03:37:16;;;;;;;;;;;;;;;15.68;64.03;97979.75;5022569;28;19931;-60
2023/09/16 03:39:43;;;;;;;;;;;;;;;15.65;64.20;97983.97;5009361;28;19925;-60
2023/09/16 03:42:12;;;;;;;;;;;;;;;15.69;63.85;97984.88;5025758;28;19931;-61
2023/09/16 03:44:40;;;;;;;;;;;;;;;15.68;64.01;97980.53;5028226;28;19926;-61
2023/09/16 03:47:09;;;;;;;;;;;;;;;15.69;63.99;97989.56;5002730;28;19933;-60
2023/09/16 03:49:38;;;;;;;;;;;;;;;15.65;63.88;97994.13;5010463;28;20354;-60
2023/09/16 03:52:07;;;;;;;;;;;;;;;15.63;64.09;97996.41;5002186;28;19956;-60
2023/09/16 03:54:35;;;;;;;;;;;;;;;15.59;63.81;97992.72;5004666;28;19929;-64
2023/09/16 03:57:04;;;;;;;;;;;;;;;15.58;63.94;97993.88;5021999;28;20341;-60
2023/09/16 03:59:33;;;;;;;;;;;;;;;15.56;63.96;97991.47;5028468;28;19925;-60
2023/09/16 04:02:01;;;;;;;;;;;;;;;15.56;63.88;97980.53;5019018;28;20382;-61
2023/09/16 04:04:29;;;;;;;;;;;;;;;15.53;63.84;97983.94;5004469;28;19967;-60
2023/09/16 04:07:00;;;;;;;;;;;;;;;15.49;64.13;97983.00;5028366;28;19925;-61
2023/09/16 04:09:31;;;;;;;;;;;;;;;15.50;63.96;97979.16;5027944;28;20291;-60
2023/09/16 04:11:59;;;;;;;;;;;;;;;15.47;64.05;97985.31;5025287;28;20340;-61
2023/09/16 04:14:27;;;;;;;;;;;;;;;15.49;63.86;97974.81;5025929;28;19925;-60
2023/09/16 04:16:56;;;;;;;;;;;;;;;15.48;64.18;97977.88;5007374;28;19929;-61
2023/09/16 04:19:23;;;;;;;;;;;;;;;15.46;64.12;97975.50;5028483;28;20380;-60
2023/09/16 04:21:52;;;;;;;;;;;;;;;15.45;64.26;97982.13;5007915;28;19969;-61
2023/09/16 04:24:20;;;;;;;;;;;;;;;15.44;64.30;97977.75;5024055;28;19925;-61
2023/09/16 04:26:48;;;;;;;;;;;;;;;15.43;64.39;97982.44;5008384;28;19935;-60
2023/09/16 04:29:15;;;;;;;;;;;;;;;15.40;64.18;97977.66;5023218;28;20286;-60
2023/09/16 04:31:44;;;;;;;;;;;;;;;15.39;64.65;97970.59;5003186;28;20440;-60
2023/09/16 04:34:15;;;;;;;;;;;;;;;15.33;64.61;97974.69;5027913;28;20371;-60
2023/09/16 04:36:43;;;;;;;;;;;;;;;15.27;64.58;97976.03;5016300;28;19929;-60
2023/09/16 04:39:11;;;;;;;;;;;;;;;15.28;64.63;97980.38;5026627;28;20374;-60
2023/09/16 04:41:39;;;;;;;;;;;;;;;15.24;64.78;97982.22;5010152;28;19929;-60
2023/09/16 04:44:08;;;;;;;;;;;;;;;15.17;65.00;97974.53;5010686;28;19925;-61
2023/09/16 04:46:36;;;;;;;;;;;;;;;15.15;65.21;97976.81;4999719;28;20079;-61
2023/09/16 04:49:07;;;;;;;;;;;;;;;15.09;65.28;97969.97;5007640;28;20286;-60
2023/09/16 04:51:36;;;;;;;;;;;;;;;15.04;65.26;97970.19;5005339;28;20366;-60
2023/09/16 04:54:04;;;;;;;;;;;;;;;14.99;65.42;97967.69;5006546;28;19929;-61
2023/09/16 04:56:32;;;;;;;;;;;;;;;14.96;65.80;97973.81;5007367;28;19925;-60
2023/09/16 04:59:02;;;;;;;;;;;;;;;14.95;65.67;97977.69;5007072;28;19973;-60
2023/09/16 05:01:31;;;;;;;;;;;;;;;14.97;65.48;97971.88;4999374;28;19936;-60
2023/09/16 05:03:58;;;;;;;;;;;;;;;14.95;65.69;97983.16;5025144;28;20291;-60
2023/09/16 05:06:29;;;;;;;;;;;;;;;14.96;65.56;97982.03;5008074;28;19936;-60
2023/09/16 05:08:59;;;;;;;;;;;;;;;15.01;65.54;97976.34;5004738;28;20008;-60
2023/09/16 05:11:27;;;;;;;;;;;;;;;15.01;65.40;97975.53;5027664;28;19932;-60
2023/09/16 05:13:59;;;;;;;;;;;;;;;14.96;65.55;97973.81;5006808;28;20055;-60
2023/09/16 05:16:27;;;;;;;;;;;;;;;14.94;65.77;97973.38;4999664;28;19960;-60
2023/09/16 05:18:59;;;;;;;;;;;;;;;14.94;65.88;97970.63;5019096;28;19940;-61
2023/09/16 05:21:28;;;;;;;;;;;;;;;14.91;65.62;97965.81;5003317;28;19960;-60
2023/09/16 05:23:56;;;;;;;;;;;;;;;14.96;65.66;97967.53;5025082;28;19936;-61
2023/09/16 05:26:27;;;;;;;;;;;;;;;14.96;65.68;97968.34;5006752;28;19936;-61
2023/09/16 05:28:56;;;;;;;;;;;;;;;14.91;65.99;97966.66;5003903;28;19928;-60
2023/09/16 05:31:26;;;;;;;;;;;;;;;14.92;65.83;97968.25;5001565;28;20546;-60
2023/09/16 05:33:54;;;;;;;;;;;;;;;14.93;65.86;97958.88;5010797;28;19991;-60
2023/09/16 05:36:27;;;;;;;;;;;;;;;14.94;65.82;97960.47;5010803;28;19928;-60
2023/09/16 05:38:57;;;;;;;;;;;;;;;14.93;65.70;97964.34;5012398;28;19929;-61
2023/09/16 05:41:28;;;;;;;;;;;;;;;14.96;65.81;97962.06;5029434;28;19936;-60
2023/09/16 05:43:57;;;;;;;;;;;;;;;14.97;65.89;97974.59;5014396;28;19933;-61
2023/09/16 05:46:26;;;;;;;;;;;;;;;14.96;65.90;97962.88;5010126;28;20293;-60
2023/09/16 05:49:06;;;;;;;;;;;;;;;14.95;65.76;97966.75;5015309;28;20414;-61
2023/09/16 05:51:35;;;;;;;;;;;;;;;14.99;65.80;97966.88;5012525;28;20393;-60
2023/09/16 05:54:03;;;;;;;;;;;;;;;15.00;66.01;97968.47;5009797;28;19937;-60
2023/09/16 05:56:38;;;;;;;;;;;;;;;15.03;66.00;97962.34;5020444;28;20298;-60
2023/09/16 05:59:07;;;;;;;;;;;;;;;15.01;65.77;97965.38;5014402;28;19925;-61
2023/09/16 06:01:36;;;;;;;;;;;;;;;15.00;66.22;97961.06;5004667;28;19925;-60
2023/09/16 06:04:03;;;;;;;;;;;;;;;15.04;66.25;97969.41;5009141;28;19925;-60
2023/09/16 06:06:31;;;;;;;;;;;;;;;15.06;65.97;97965.16;5013694;28;19929;-63
2023/09/16 06:08:59;;;;;;;;;;;;;;;15.10;66.01;97965.31;5033153;28;19931;-62
2023/09/16 06:11:28;;;;;;;;;;;;;;;15.11;66.10;97964.97;5015281;28;19933;-61
2023/09/16 06:13:58;;;;;;;;;;;;;;;15.14;65.91;97964.28;5002846;28;19944;-60
2023/09/16 06:16:26;;;;;;;;;;;;;;;15.20;65.87;97964.88;5005617;28;19940;-60
2023/09/16 06:18:54;;;;;;;;;;;;;;;15.23;65.99;97964.16;5025874;28;19983;-60
2023/09/16 06:21:23;;;;;;;;;;;;;;;15.27;65.79;97969.78;5032487;28;20010;-61
2023/09/16 06:23:51;;;;;;;;;;;;;;;15.34;65.64;97972.72;5015054;28;19929;-61
2023/09/16 06:26:18;;;;;;;;;;;;;;;15.39;65.56;97964.28;5007814;28;19929;-62
2023/09/16 06:28:47;;;;;;;;;;;;;;;15.46;65.56;97964.53;5013993;28;19968;-61
2023/09/16 06:31:16;;;;;;;;;;;;;;;15.45;65.82;97968.44;5001447;28;19929;-61
2023/09/16 06:33:49;;;;;;;;;;;;;;;15.45;65.68;97968.44;5011822;28;19925;-61
2023/09/16 06:36:18;;;;;;;;;;;;;;;15.50;65.60;97970.94;5008979;28;19975;-61
2023/09/16 06:38:45;;;;;;;;;;;;;;;15.56;65.15;97966.03;5011319;28;19944;-60
2023/09/16 06:41:13;;;;;;;;;;;;;;;15.63;65.24;97964.34;5010960;28;19933;-61
2023/09/16 06:43:41;;;;;;;;;;;;;;;15.70;65.09;97964.56;5014199;28;19929;-61
2023/09/16 06:46:09;;;;;;;;;;;;;;;15.76;64.95;97962.38;5007228;28;19932;-61
2023/09/16 06:48:39;;;;;;;;;;;;;;;15.81;65.06;97961.34;5026133;28;19933;-61
2023/09/16 06:51:07;;;;;;;;;;;;;;;15.84;65.25;97952.47;5031837;28;19925;-60
2023/09/16 06:53:35;;;;;;;;;;;;;;;15.90;65.17;97948.34;5026941;28;19944;-60
2023/09/16 06:56:03;;;;;;;;;;;;;;;15.97;65.15;97945.81;5027986;28;19952;-60
2023/09/16 06:58:31;;;;;;;;;;;;;;;16.04;64.87;97947.97;5032260;28;19932;-61
2023/09/16 07:00:58;;;;;;;;;;;;;;;16.07;64.89;97945.31;5023925;28;19934;-60
2023/09/16 07:03:26;;;;;;;;;;;;;;;16.13;64.84;97949.41;5027706;28;19925;-60
2023/09/16 07:05:55;;;;;;;;;;;;;;;16.19;64.81;97956.28;5032499;28;19951;-60
2023/09/16 07:08:24;;;;;;;;;;;;;;;16.21;64.73;97956.72;5021155;28;19929;-60
2023/09/16 07:10:52;;;;;;;;;;;;;;;16.27;64.74;97959.22;5025045;28;19929;-60
2023/09/16 07:13:19;;;;;;;;;;;;;;;16.33;64.58;97953.13;5031546;28;20290;-60
2023/09/16 07:15:52;;;;;;;;;;;;;;;16.41;64.27;97951.41;5024522;28;19932;-60
2023/09/16 07:18:20;;;;;;;;;;;;;;;16.46;63.92;97951.16;5029163;28;19925;-60
2023/09/16 07:20:48;;;;;;;;;;;;;;;16.53;64.29;97947.81;5031319;28;19929;-60
2023/09/16 07:23:18;;;;;;;;;;;;;;;16.60;64.27;97943.31;5030874;28;19926;-61
2023/09/16 07:25:53;;;;;;;;;;;;;;;16.67;63.93;97949.03;5029241;28;20438;-60
2023/09/16 07:28:21;;;;;;;;;;;;;;;16.73;63.94;97944.91;5029065;28;19935;-60
2023/09/16 07:30:49;;;;;;;;;;;;;;;16.80;63.70;97944.28;5023758;28;19940;-60
2023/09/16 07:33:17;;;;;;;;;;;;;;;16.86;63.45;97944.81;5030457;28;20290;-60
2023/09/16 07:35:44;;;;;;;;;;;;;;;16.91;63.21;97939.88;5025586;28;20400;-60
2023/09/16 07:38:12;;;;;;;;;;;;;;;16.93;63.10;97940.31;5030796;28;19925;-60
2023/09/16 07:40:41;;;;;;;;;;;;;;;16.99;63.19;97941.66;5028817;28;19929;-60
2023/09/16 07:43:11;;;;;;;;;;;;;;;17.06;63.16;97940.25;5028097;28;19933;-60
2023/09/16 07:45:39;;;;;;;;;;;;;;;17.13;63.11;97941.22;5023248;28;19936;-61
2023/09/16 07:48:09;;;;;;;;;;;;;;;17.21;62.91;97942.22;5028638;28;20011;-61
2023/09/16 07:50:37;;;;;;;;;;;;;;;17.26;62.64;97953.72;5018989;28;19968;-61
2023/09/16 07:53:05;;;;;;;;;;;;;;;17.34;63.05;97957.44;5026429;28;20003;-60
2023/09/16 07:55:32;;;;;;;;;;;;;;;17.42;63.06;97961.97;5027095;28;19925;-60
2023/09/16 07:58:01;;;;;;;;;;;;;;;17.52;62.81;97968.84;5020371;28;19995;-60
2023/09/16 08:00:29;;;;;;;;;;;;;;;17.55;63.01;97968.94;5016717;28;19929;-60
2023/09/16 08:02:57;;;;;;;;;;;;;;;17.59;62.37;97979.22;5023796;28;19925;-60
2023/09/16 08:05:25;;;;;;;;;;;;;;;17.67;62.32;97968.03;5026187;28;19936;-60
2023/09/16 08:07:53;;;;;;;;;;;;;;;17.71;62.15;97970.88;5011506;28;20337;-60
2023/09/16 08:10:21;;;;;;;;;;;;;;;17.74;61.92;97976.50;5029150;28;19933;-60
2023/09/16 08:12:48;;;;;;;;;;;;;;;17.84;61.89;97974.34;5029108;28;19925;-60
2023/09/16 08:15:18;;;;;;;;;;;;;;;17.89;61.94;97971.31;5020415;28;19980;-61
2023/09/16 08:17:46;;;;;;;;;;;;;;;17.95;61.43;97969.88;5020551;28;19929;-60
2023/09/16 08:20:20;;;;;;;;;;;;;;;18.02;61.59;97964.56;5023748;28;19932;-61
2023/09/16 08:22:48;;;;;;;;;;;;;;;18.06;62.25;97955.25;5030671;28;19925;-60
2023/09/16 08:25:16;;;;;;;;;;;;;;;18.17;62.31;97968.44;5031109;28;19937;-61
2023/09/16 08:27:44;;;;;;;;;;;;;;;18.23;61.70;97970.53;5026468;28;19929;-61
2023/09/16 08:30:12;;;;;;;;;;;;;;;18.29;61.96;97966.34;5025817;28;19925;-60
2023/09/16 08:32:41;;;;;;;;;;;;;;;18.35;61.79;97971.56;5027366;28;20393;-61
2023/09/16 08:35:09;;;;;;;;;;;;;;;18.41;61.83;97975.59;5031653;28;19925;-60
2023/09/16 08:37:37;;;;;;;;;;;;;;;18.50;61.80;97982.50;5025375;28;19951;-61
2023/09/16 08:40:05;;;;;;;;;;;;;;;18.57;61.81;97987.34;5031468;28;19932;-60
2023/09/16 08:42:35;;;;;;;;;;;;;;;18.61;61.83;97984.66;5035607;28;20394;-61
2023/09/16 08:45:04;;;;;;;;;;;;;;;18.64;61.66;97976.47;5029918;28;19935;-61
2023/09/16 08:47:33;;;;;;;;;;;;;;;18.72;61.58;97975.50;5027603;28;20410;-60
2023/09/16 08:50:04;;;;;;;;;;;;;;;18.79;61.71;97975.63;5029994;28;19930;-61
2023/09/16 08:52:34;;;;;;;;;;;;;;;18.86;61.75;97968.69;5027310;28;20449;-61
2023/09/16 08:55:02;;;;;;;;;;;;;;;18.91;62.01;97976.63;5030781;28;19929;-60
2023/09/16 08:57:29;;;;;;;;;;;;;;;18.97;61.63;97969.69;5030166;28;19952;-61
2023/09/16 08:59:57;;;;;;;;;;;;;;;19.02;60.91;97977.63;5024522;28;19925;-61
2023/09/16 09:02:26;;;;;;;;;;;;;;;19.08;60.70;97982.47;5017144;28;19933;-60
2023/09/16 09:04:55;;;;;;;;;;;;;;;19.17;60.67;97984.97;5016771;28;19929;-61
2023/09/16 09:07:24;;;;;;;;;;;;;;;19.21;60.51;97977.56;5027822;28;20010;-61
2023/09/16 09:09:52;;;;;;;;;;;;;;;19.26;60.68;97970.97;5024576;28;19925;-61
2023/09/16 09:12:20;;;;;;;;;;;;;;;19.32;60.21;97977.75;5007712;28;19925;-60
2023/09/16 09:14:47;;;;;;;;;;;;;;;19.38;60.57;97976.28;5008700;28;19925;-60
2023/09/16 09:17:15;;;;;;;;;;;;;;;19.42;60.26;97971.66;5006489;28;19925;-61
2023/09/16 09:19:43;;;;;;;;;;;;;;;19.48;59.69;97972.13;5011433;28;19925;-60
2023/09/16 09:22:14;;;;;;;;;;;;;;;19.55;59.39;97978.56;5011508;28;19932;-61
2023/09/16 09:24:43;;;;;;;;;;;;;;;19.60;59.67;97977.47;5008158;28;19987;-61
2023/09/16 09:27:11;;;;;;;;;;;;;;;19.63;59.69;97974.00;5003482;28;19933;-61
2023/09/16 09:29:38;;;;;;;;;;;;;;;19.70;59.27;97979.59;5004086;28;20402;-61
2023/09/16 09:32:06;;;;;;;;;;;;;;;19.72;59.24;97977.28;5002364;28;19937;-61
2023/09/16 09:34:34;;;;;;;;;;;;;;;19.77;58.89;97978.94;5009181;28;19925;-61
2023/09/16 09:37:02;;;;;;;;;;;;;;;19.80;58.27;97980.94;5006157;28;19979;-61
2023/09/16 09:39:31;;;;;;;;;;;;;;;19.84;58.89;97968.00;5010576;28;19926;-61
2023/09/16 09:42:00;;;;;;;;;;;;;;;19.91;58.91;97972.81;5004348;28;19971;-62
2023/09/16 09:44:28;;;;;;;;;;;;;;;19.96;58.65;97967.78;5006598;28;19925;-61
2023/09/16 09:46:55;;;;;;;;;;;;;;;20.03;58.86;97964.38;5005475;28;19925;-62
2023/09/16 09:49:23;;;;;;;;;;;;;;;20.06;58.29;97963.59;5005840;28;20299;-62
2023/09/16 09:51:51;;;;;;;;;;;;;;;20.11;57.11;97960.53;5006565;28;19937;-62
2023/09/16 09:54:19;;;;;;;;;;;;;;;20.17;57.08;97959.03;5010367;28;19933;-61
2023/09/16 09:56:47;;;;;;;;;;;;;;;20.21;56.51;97954.34;5015866;28;19937;-62
2023/09/16 09:59:16;;;;;;;;;;;;;;;20.26;56.75;97962.31;5003491;28;20015;-61
2023/09/16 10:01:44;;;;;;;;;;;;;;;20.31;56.72;97959.22;4981270;28;20441;-61
2023/09/16 10:04:11;;;;;;;;;;;;;;;20.38;56.79;97964.81;5010604;28;19936;-62
2023/09/16 10:06:39;;;;;;;;;;;;;;;20.43;56.40;97960.94;5006516;28;19925;-62
2023/09/16 10:09:07;;;;;;;;;;;;;;;20.45;55.88;97953.06;5010249;28;20363;-62
2023/09/16 10:11:36;;;;;;;;;;;;;;;20.48;56.26;97954.34;5023811;28;20359;-61
2023/09/16 10:14:03;;;;;;;;;;;;;;;20.49;56.14;97956.72;5022517;28;19931;-62
2023/09/16 10:16:33;;;;;;;;;;;;;;;20.51;56.10;97950.84;5016468;28;19944;-62
2023/09/16 10:19:01;;;;;;;;;;;;;;;20.54;56.10;97950.06;5028200;28;19929;-62
2023/09/16 10:21:29;;;;;;;;;;;;;;;20.57;56.15;97938.28;5029164;28;19935;-62
2023/09/16 10:23:56;;;;;;;;;;;;;;;20.57;55.46;97939.09;5030536;28;19944;-62
2023/09/16 10:26:24;;;;;;;;;;;;;;;20.61;55.67;97941.88;5026461;28;20481;-63
2023/09/16 10:28:52;;;;;;;;;;;;;;;20.63;55.75;97945.06;5033173;28;19925;-62
2023/09/16 10:31:20;;;;;;;;;;;;;;;20.65;55.70;97940.72;5029270;28;19936;-63
2023/09/16 10:33:49;;;;;;;;;;;;;;;20.72;55.74;97940.03;5031504;28;19929;-63
2023/09/16 10:36:17;;;;;;;;;;;;;;;20.77;56.25;97936.91;5031436;28;20432;-63
2023/09/16 10:38:45;;;;;;;;;;;;;;;20.85;55.47;97930.31;5031838;28;19931;-62
2023/09/16 10:41:13;;;;;;;;;;;;;;;20.89;55.30;97925.63;5028707;28;19932;-62
2023/09/16 10:43:40;;;;;;;;;;;;;;;20.93;55.48;97929.22;5031346;28;20383;-62
2023/09/16 10:46:08;;;;;;;;;;;;;;;20.98;54.76;97930.81;5026509;28;19935;-62
2023/09/16 10:48:36;;;;;;;;;;;;;;;21.03;54.96;97926.94;5032074;28;20754;-62
2023/09/16 10:51:06;;;;;;;;;;;;;;;21.03;54.23;97915.88;5030521;28;19999;-62
2023/09/16 10:53:36;;;;;;;;;;;;;;;21.03;54.47;97916.66;5031129;28;20367;-63
2023/09/16 10:56:06;;;;;;;;;;;;;;;21.04;54.47;97918.28;5028250;28;20671;-63
2023/09/16 10:58:36;;;;;;;;;;;;;;;21.07;54.61;97922.25;5031590;28;19990;-63
2023/09/16 11:01:04;;;;;;;;;;;;;;;21.12;54.57;97919.13;5020161;28;20260;-62
2023/09/16 11:03:32;;;;;;;;;;;;;;;21.12;54.52;97919.13;5029400;28;19926;-62
2023/09/16 11:06:01;;;;;;;;;;;;;;;21.15;53.97;97910.88;5031268;28;19933;-63
2023/09/16 11:08:30;;;;;;;;;;;;;;;21.17;54.10;97911.28;5032242;28;20967;-62
2023/09/16 11:10:59;;;;;;;;;;;;;;;21.23;52.76;97908.97;5032608;28;19925;-62
2023/09/16 11:13:27;;;;;;;;;;;;;;;21.27;53.49;97909.78;5028488;28;19933;-62
2023/09/16 11:15:58;;;;;;;;;;;;;;;21.30;53.37;97897.19;5022666;28;20454;-61
2023/09/16 11:18:26;;;;;;;;;;;;;;;21.33;53.96;97907.50;5028686;28;19967;-63
2023/09/16 11:20:53;;;;;;;;;;;;;;;21.39;52.49;97908.72;5027373;28;20408;-63
2023/09/16 11:23:21;;;;;;;;;;;;;;;21.45;52.73;97898.91;5027126;28;19939;-63
2023/09/16 11:25:51;;;;;;;;;;;;;;;21.45;52.43;97898.91;5012516;28;19929;-62
2023/09/16 11:28:19;;;;;;;;;;;;;;;21.50;52.87;97900.53;5029694;28;20333;-63
2023/09/16 11:30:53;;;;;;;;;;;;;;;21.56;51.74;97899.78;5026401;28;19925;-63
2023/09/16 11:33:27;;;;;;;;;;;;;;;21.60;51.88;97899.81;5028425;28;20440;-62
2023/09/16 11:36:09;;;;;;;;;;;;;;;21.63;51.92;97899.84;5028207;28;20329;-63
2023/09/16 11:38:37;;;;;;;;;;;;;;;21.65;51.86;97891.16;5031206;28;20015;-64
2023/09/16 11:41:12;;;;;;;;;;;;;;;21.70;51.22;97885.25;5023864;28;19933;-63
2023/09/16 11:43:41;;;;;;;;;;;;;;;21.70;51.95;97882.50;5032086;28;19925;-63
2023/09/16 11:46:09;;;;;;;;;;;;;;;21.81;50.58;97880.59;5018515;28;19925;-63
2023/09/16 11:48:47;;;;;;;;;;;;;;;21.90;50.48;97885.78;5020444;28;20294;-64
2023/09/16 11:51:15;;;;;;;;;;;;;;;22.01;48.89;97881.09;5028233;28;19939;-63
2023/09/16 11:53:43;;;;;;;;;;;;;;;22.05;48.12;97881.91;5024482;28;19932;-63
2023/09/16 11:56:15;;;;;;;;;;;;;;;22.03;49.43;97880.69;5027429;28;19925;-62
2023/09/16 11:58:43;;;;;;;;;;;;;;;22.11;49.25;97882.38;5031699;28;19929;-62
2023/09/16 12:01:11;;;;;;;;;;;;;;;22.08;48.96;97881.13;5020337;28;19929;-62
2023/09/16 12:03:40;;;;;;;;;;;;;;;22.05;49.73;97868.09;5021000;28;19929;-62
2023/09/16 12:06:08;;;;;;;;;;;;;;;22.05;49.92;97870.03;5024724;28;19947;-62
2023/09/16 12:08:35;;;;;;;;;;;;;;;22.04;49.63;97868.44;5020732;28;19926;-62
2023/09/16 12:11:05;;;;;;;;;;;;;;;22.07;47.50;97867.69;5024110;28;19987;-62
2023/09/16 12:13:34;;;;;;;;;;;;;;;22.10;49.55;97872.44;5025003;28;19931;-62
2023/09/16 12:16:02;;;;;;;;;;;;;;;22.11;49.80;97871.28;5022953;28;20298;-63
2023/09/16 12:18:30;;;;;;;;;;;;;;;22.11;49.91;97868.53;5021697;28;19933;-62
2023/09/16 12:20:58;;;;;;;;;;;;;;;22.11;49.75;97869.31;5025637;28;20002;-62
2023/09/16 12:23:28;;;;;;;;;;;;;;;22.15;49.35;97866.56;5026963;28;20385;-62
2023/09/16 12:25:55;;;;;;;;;;;;;;;22.22;47.26;97870.16;5031727;28;19965;-62
2023/09/16 12:28:23;;;;;;;;;;;;;;;22.32;46.51;97860.31;5017099;28;20303;-62
2023/09/16 12:30:55;;;;;;;;;;;;;;;22.31;47.75;97867.00;5021931;28;19948;-62
2023/09/16 12:33:23;;;;;;;;;;;;;;;22.33;47.38;97863.88;5030659;28;19929;-62
2023/09/16 12:35:51;;;;;;;;;;;;;;;22.41;47.74;97855.19;5030854;28;19925;-62
2023/09/16 12:38:18;;;;;;;;;;;;;;;22.41;48.52;97846.88;5030788;28;19932;-62
2023/09/16 12:40:46;;;;;;;;;;;;;;;22.40;48.54;97847.28;5023930;28;19925;-63
2023/09/16 12:43:14;;;;;;;;;;;;;;;22.41;48.30;97838.56;5022747;28;19956;-62
2023/09/16 12:45:42;;;;;;;;;;;;;;;22.42;47.79;97839.38;5023481;28;19948;-62
2023/09/16 12:48:11;;;;;;;;;;;;;;;22.44;47.63;97839.78;5024351;28;19936;-62
2023/09/16 12:50:39;;;;;;;;;;;;;;;22.46;47.51;97837.41;5018905;28;19953;-60
2023/09/16 12:53:06;;;;;;;;;;;;;;;22.55;47.56;97837.03;5030518;28;19978;-61
2023/09/16 12:55:34;;;;;;;;;;;;;;;22.56;47.47;97838.63;5029443;28;19935;-62